Rechercher aéroport 
image banner adimage banner adimage banner ad
image banner ad

7CL9 - Perryman

Situé à Placerville, United States

ICAO - 7CL9, IATA -

Données fournies par Airmate  

Information générale

Coordonnées: N38°41'47" W120°43'53"
Élévation : 2600 feet MSL.
Variation magnétique : 16° East
Voir autres Aéroports à California

Données opérationnelles

Special qualification required
Heure actuelle UTC:
Heure actuelle locale:
Météo à : KPVF - Placerville ( 4 km )
METAR: KPVF 020555Z AUTO 20003KT 10SM CLR 22/05 A3014 RMK AO1
Voir NOTAMs / SUP AIP / TFR affectant cet aéroport [VIEW]
Fréquences de communication: [VIEW]

Pistes:

Identifiant RWYQFULongueur (ft)Largeur (ft)SurfaceLDA (ft)
082000100GRASS
262000100GRASS

Coordonnées de l'aéroport

Adresse: Placerville United States

Vue satellite de 7CL9